createdAt,value
2022-12-24T00:01:29.752Z,231.80
2022-12-24T00:03:57.595Z,225.60
2022-12-24T00:06:25.870Z,211.50
2022-12-24T00:08:53.889Z,218.70
2022-12-24T00:11:21.998Z,242.10
2022-12-24T00:13:49.864Z,225.70
2022-12-24T00:16:17.966Z,240.40
2022-12-24T00:18:47.062Z,213.60
2022-12-24T00:21:16.259Z,222.30
2022-12-24T00:23:44.178Z,227.80
2022-12-24T00:26:13.607Z,225.60
2022-12-24T00:28:41.929Z,237.30
2022-12-24T00:31:17.113Z,241.00
2022-12-24T00:33:49.367Z,223.20
2022-12-24T00:36:18.499Z,222.70
2022-12-24T00:38:46.629Z,223.10
2022-12-24T00:41:25.361Z,225.30
2022-12-24T00:43:54.183Z,233.50
2022-12-24T00:46:23.783Z,224.80
2022-12-24T00:48:51.800Z,230.00
2022-12-24T00:51:21.086Z,243.90
2022-12-24T00:53:49.538Z,242.20
2022-12-24T00:56:18.558Z,222.90
2022-12-24T00:58:46.560Z,229.60
2022-12-24T01:01:15.283Z,241.30
2022-12-24T01:03:44.226Z,243.60
2022-12-24T01:06:21.571Z,223.40
2022-12-24T01:08:52.593Z,229.60
2022-12-24T01:11:20.651Z,229.70
2022-12-24T01:13:48.458Z,235.20
2022-12-24T01:16:20.191Z,215.20
2022-12-24T01:18:48.312Z,242.10
2022-12-24T01:21:16.697Z,229.50
2022-12-24T01:23:45.001Z,236.60
2022-12-24T01:26:13.036Z,239.80
2022-12-24T01:28:42.094Z,235.20
2022-12-24T01:31:12.524Z,241.90
2022-12-24T01:33:41.211Z,215.80
2022-12-24T01:36:09.693Z,219.50
2022-12-24T01:38:38.449Z,223.80
2022-12-24T01:41:25.506Z,224.00
2022-12-24T01:43:53.323Z,232.80
2022-12-24T01:46:29.955Z,234.20
2022-12-24T01:49:04.605Z,228.80
2022-12-24T01:51:40.023Z,216.20
2022-12-24T01:54:13.285Z,209.30
2022-12-24T01:56:46.948Z,215.00
2022-12-24T01:59:18.737Z,227.50
2022-12-24T02:01:49.941Z,227.30
2022-12-24T02:04:29.609Z,228.80
2022-12-24T02:06:57.641Z,221.60
2022-12-24T02:09:26.012Z,231.80
2022-12-24T02:11:54.130Z,221.50
2022-12-24T02:14:22.459Z,206.60
2022-12-24T02:17:13.449Z,228.50
2022-12-24T02:20:06.371Z,222.90
2022-12-24T02:22:49.532Z,203.60
2022-12-24T02:25:36.038Z,227.90
2022-12-24T02:28:15.834Z,226.70
2022-12-24T02:30:48.773Z,221.10
2022-12-24T02:33:30.559Z,219.30
2022-12-24T02:36:24.293Z,233.90
2022-12-24T02:39:01.399Z,232.80
2022-12-24T02:41:53.545Z,200.10
2022-12-24T02:44:26.145Z,199.40
2022-12-24T02:46:56.585Z,185.70
2022-12-24T02:49:24.523Z,191.60
2022-12-24T02:51:52.450Z,195.20
2022-12-24T02:54:20.351Z,208.80
2022-12-24T02:57:12.781Z,188.40
2022-12-24T03:00:05.993Z,190.10
2022-12-24T03:02:45.084Z,181.80
2022-12-24T03:05:42.704Z,193.70
2022-12-24T03:08:23.253Z,193.60
2022-12-24T03:10:54.117Z,175.00
2022-12-24T03:13:24.638Z,182.70
2022-12-24T03:15:52.646Z,183.20
2022-12-24T03:18:30.883Z,172.20
2022-12-24T03:21:24.536Z,184.30
2022-12-24T03:23:52.424Z,199.80
2022-12-24T03:26:21.141Z,176.20
2022-12-24T03:28:50.182Z,177.80
2022-12-24T03:31:18.813Z,184.40
2022-12-24T03:33:47.388Z,208.30
2022-12-24T03:36:15.650Z,199.00
2022-12-24T03:38:43.552Z,202.40
2022-12-24T03:41:11.472Z,208.40
2022-12-24T03:43:39.326Z,213.30
2022-12-24T03:46:08.394Z,191.20
2022-12-24T03:48:36.694Z,188.70
2022-12-24T03:51:05.071Z,187.20
2022-12-24T03:53:33.019Z,183.30
2022-12-24T03:56:00.901Z,179.40
2022-12-24T03:58:28.795Z,170.90
2022-12-24T04:00:56.780Z,169.90
2022-12-24T04:03:24.675Z,186.50
2022-12-24T04:06:08.420Z,171.70
2022-12-24T04:08:36.980Z,179.40
2022-12-24T04:11:09.878Z,176.40
2022-12-24T04:13:38.314Z,205.70
2022-12-24T04:16:12.271Z,197.50
2022-12-24T04:18:40.432Z,182.50
2022-12-24T04:21:09.182Z,185.00
2022-12-24T04:23:38.954Z,189.90
2022-12-24T04:26:08.792Z,180.80
2022-12-24T04:28:37.845Z,199.00
2022-12-24T04:31:08.368Z,183.80
2022-12-24T04:33:36.850Z,182.10
2022-12-24T04:36:06.692Z,165.90
2022-12-24T04:38:35.792Z,174.10
2022-12-24T04:41:14.748Z,175.80
2022-12-24T04:43:47.148Z,197.40
2022-12-24T04:46:21.436Z,188.40
2022-12-24T04:48:51.839Z,179.00
2022-12-24T04:51:20.268Z,168.50
2022-12-24T04:53:48.404Z,151.10
2022-12-24T04:56:18.772Z,156.40
2022-12-24T04:58:46.705Z,153.50
2022-12-24T05:01:18.213Z,164.30
2022-12-24T05:03:46.414Z,159.80
2022-12-24T05:06:18.504Z,157.80
2022-12-24T05:08:46.409Z,160.60
2022-12-24T05:11:15.800Z,150.40
2022-12-24T05:13:47.412Z,158.00
2022-12-24T05:16:18.585Z,159.40
2022-12-24T05:18:46.476Z,162.70
2022-12-24T05:21:17.974Z,152.70
2022-12-24T05:24:04.470Z,146.80
2022-12-24T05:26:54.902Z,130.60
2022-12-24T05:29:23.925Z,127.90
2022-12-24T05:31:51.834Z,122.00
2022-12-24T05:34:19.672Z,126.20
2022-12-24T05:36:47.458Z,136.40
2022-12-24T05:39:17.330Z,129.50
2022-12-24T05:41:46.219Z,131.00
2022-12-24T05:44:16.361Z,130.40
2022-12-24T05:46:44.444Z,132.90
2022-12-24T05:49:13.112Z,123.30
2022-12-24T05:51:41.521Z,129.30
2022-12-24T05:54:10.806Z,131.80
2022-12-24T05:56:39.220Z,121.40
2022-12-24T05:59:07.153Z,120.10
2022-12-24T06:01:35.470Z,119.00
2022-12-24T06:04:03.522Z,118.50
2022-12-24T06:06:31.523Z,128.60
2022-12-24T06:08:59.503Z,130.60
2022-12-24T06:11:28.553Z,129.40
2022-12-24T06:13:56.710Z,116.90
2022-12-24T06:16:25.633Z,114.80
2022-12-24T06:18:54.723Z,118.00
2022-12-24T06:21:22.983Z,115.10
2022-12-24T06:23:51.122Z,116.70
2022-12-24T06:26:22.046Z,111.90
2022-12-24T06:28:51.747Z,109.10
2022-12-24T06:31:22.701Z,109.20
2022-12-24T06:33:50.945Z,102.40
2022-12-24T06:36:22.808Z,109.20
2022-12-24T06:38:53.400Z,118.40
2022-12-24T06:41:21.701Z,109.60
2022-12-24T06:43:52.024Z,106.10
2022-12-24T06:46:21.368Z,103.70
2022-12-24T06:48:49.271Z,107.90
2022-12-24T06:51:20.036Z,101.40
2022-12-24T06:53:50.635Z,100.60
2022-12-24T06:56:20.539Z,105.70
2022-12-24T06:58:50.774Z,102.50
2022-12-24T07:01:20.594Z,100.40
2022-12-24T07:03:48.934Z,109.60
2022-12-24T07:06:24.869Z,93.80
2022-12-24T07:08:53.076Z,97.40
2022-12-24T07:11:22.407Z,93.60
2022-12-24T07:13:50.351Z,91.70
2022-12-24T07:16:20.638Z,93.30
2022-12-24T07:18:48.815Z,97.80
2022-12-24T07:21:16.694Z,95.60
2022-12-24T07:23:44.511Z,86.20
2022-12-24T07:26:12.387Z,86.60
2022-12-24T07:28:40.438Z,85.00
2022-12-24T07:31:08.346Z,85.00
2022-12-24T07:33:36.223Z,78.10
2022-12-24T07:36:07.468Z,83.20
2022-12-24T07:38:35.818Z,75.00
2022-12-24T07:41:03.873Z,72.80
2022-12-24T07:43:33.356Z,77.20
2022-12-24T07:46:02.344Z,144.80
2022-12-24T07:48:32.970Z,103.60
2022-12-24T07:51:01.633Z,116.80
2022-12-24T07:53:30.000Z,104.70
2022-12-24T07:55:58.815Z,90.40
2022-12-24T07:58:26.764Z,80.80
2022-12-24T08:00:59.643Z,73.80
2022-12-24T08:03:28.685Z,74.90
2022-12-24T08:05:57.578Z,63.80
2022-12-24T08:08:25.959Z,61.80
2022-12-24T08:10:53.885Z,65.80
2022-12-24T08:13:21.791Z,60.70
2022-12-24T08:15:49.621Z,64.00
2022-12-24T08:18:17.496Z,55.60
2022-12-24T08:20:45.407Z,62.70
2022-12-24T08:23:13.414Z,59.10
2022-12-24T08:25:46.706Z,58.80
2022-12-24T08:28:16.822Z,59.60
2022-12-24T08:30:45.259Z,58.90
2022-12-24T08:33:13.120Z,62.70
2022-12-24T08:35:41.021Z,58.90
2022-12-24T08:38:08.846Z,61.70
2022-12-24T08:40:36.676Z,58.60
2022-12-24T08:43:04.658Z,59.30
2022-12-24T08:45:39.701Z,59.50
2022-12-24T08:48:09.484Z,59.20
2022-12-24T08:50:41.135Z,65.50
2022-12-24T08:53:09.833Z,66.80
2022-12-24T08:55:38.565Z,67.00
2022-12-24T08:58:06.414Z,59.90
2022-12-24T09:00:34.383Z,62.60
2022-12-24T09:03:02.381Z,70.10
2022-12-24T09:05:30.829Z,70.90
2022-12-24T09:07:58.719Z,68.00
2022-12-24T09:10:26.518Z,66.50
2022-12-24T09:12:54.510Z,65.50
2022-12-24T09:15:22.397Z,62.70
2022-12-24T09:17:50.253Z,63.00
2022-12-24T09:20:18.196Z,65.30
2022-12-24T09:22:46.193Z,62.70
2022-12-24T09:25:14.154Z,66.40
2022-12-24T09:27:42.023Z,65.00
2022-12-24T09:30:10.844Z,91.70
2022-12-24T09:32:38.614Z,98.90
2022-12-24T09:35:07.172Z,97.90
2022-12-24T09:37:35.119Z,99.00
2022-12-24T09:40:02.969Z,89.30
2022-12-24T09:42:38.776Z,85.50
2022-12-24T09:45:34.930Z,84.90
2022-12-24T09:48:25.163Z,90.30
2022-12-24T09:50:58.984Z,86.80
2022-12-24T09:56:19.274Z,91.20
2022-12-24T09:59:02.554Z,93.70
2022-12-24T10:01:33.958Z,95.00
2022-12-24T10:04:13.570Z,86.50
2022-12-24T10:06:54.628Z,89.20
2022-12-24T10:09:34.269Z,93.10
2022-12-24T10:12:43.202Z,85.30
2022-12-24T10:15:19.768Z,88.60
2022-12-24T10:17:56.864Z,77.10
2022-12-24T10:20:43.477Z,85.50
2022-12-24T10:23:20.618Z,79.00
2022-12-24T10:25:54.994Z,84.10
2022-12-24T10:28:32.287Z,84.90
2022-12-24T10:31:05.628Z,88.00
2022-12-24T10:33:47.190Z,91.60
2022-12-24T10:36:18.823Z,79.40
2022-12-24T10:38:47.030Z,78.10
2022-12-24T10:41:16.337Z,76.90
2022-12-24T10:43:46.843Z,77.00
2022-12-24T10:46:36.526Z,76.30
2022-12-24T10:49:37.913Z,78.90
2022-12-24T10:52:11.842Z,77.20
2022-12-24T10:57:27.606Z,77.40
2022-12-24T10:59:56.788Z,76.30
2022-12-24T11:02:26.362Z,71.40
2022-12-24T11:04:55.192Z,68.10
2022-12-24T11:07:24.257Z,69.20
2022-12-24T11:10:04.899Z,68.10
2022-12-24T11:12:40.720Z,61.70
2022-12-24T11:15:22.905Z,62.10
2022-12-24T11:18:00.461Z,65.10
2022-12-24T11:20:31.381Z,66.60
2022-12-24T11:22:59.970Z,63.20
2022-12-24T11:25:29.475Z,61.70
2022-12-24T11:28:10.212Z,59.90
2022-12-24T11:30:38.724Z,56.10
2022-12-24T11:33:09.633Z,54.20
2022-12-24T11:35:45.989Z,62.80
2022-12-24T11:38:23.172Z,59.10
2022-12-24T11:41:00.097Z,60.00
2022-12-24T11:43:44.499Z,58.50
2022-12-24T11:46:23.025Z,56.40
2022-12-24T11:49:26.173Z,55.50
2022-12-24T11:52:12.526Z,62.60
2022-12-24T11:54:46.583Z,65.20
2022-12-24T11:57:20.219Z,75.40
2022-12-24T11:59:49.549Z,69.20
2022-12-24T12:02:25.251Z,61.90
2022-12-24T12:05:03.258Z,77.70
2022-12-24T12:07:36.183Z,70.80
2022-12-24T12:10:17.988Z,69.20
2022-12-24T12:12:53.155Z,66.30
2022-12-24T12:15:26.017Z,69.00
2022-12-24T12:18:15.151Z,68.00
2022-12-24T12:20:56.644Z,66.20
2022-12-24T12:23:28.455Z,61.60
2022-12-24T12:26:10.352Z,73.50
2022-12-24T12:28:59.337Z,73.60
2022-12-24T12:31:38.961Z,71.60
2022-12-24T12:34:07.058Z,70.40
2022-12-24T12:36:45.369Z,68.70
2022-12-24T12:39:13.201Z,72.00
2022-12-24T12:41:50.121Z,68.50
2022-12-24T12:44:36.047Z,69.60
2022-12-24T12:47:35.902Z,67.20
2022-12-24T12:50:23.742Z,67.80
2022-12-24T12:53:01.304Z,73.50
2022-12-24T12:55:34.860Z,69.30
2022-12-24T12:58:16.335Z,75.10
2022-12-24T13:00:47.763Z,71.30
2022-12-24T13:03:18.627Z,71.30
2022-12-24T13:06:19.111Z,68.00
2022-12-24T13:09:20.809Z,71.70
2022-12-24T13:12:19.617Z,70.60
2022-12-24T13:15:19.606Z,71.80
2022-12-24T13:18:21.778Z,74.80
2022-12-24T13:20:51.891Z,72.90
2022-12-24T13:23:25.736Z,66.70
2022-12-24T13:28:22.786Z,74.90
2022-12-24T13:31:11.884Z,72.70
2022-12-24T13:33:39.913Z,71.00
2022-12-24T13:36:10.481Z,75.90
2022-12-24T13:38:48.733Z,70.80
2022-12-24T13:41:38.185Z,72.40
2022-12-24T13:44:06.985Z,72.90
2022-12-24T13:46:53.044Z,75.40
2022-12-24T13:49:30.901Z,76.40
2022-12-24T13:52:30.562Z,76.50
2022-12-24T13:54:58.282Z,77.00
2022-12-24T13:57:48.367Z,75.50
2022-12-24T14:00:22.315Z,79.60
2022-12-24T14:05:28.245Z,78.10
2022-12-24T14:07:57.923Z,74.70
2022-12-24T14:10:36.293Z,79.40
2022-12-24T14:13:09.121Z,79.40
2022-12-24T14:15:49.247Z,81.10
2022-12-24T14:18:19.177Z,80.40
2022-12-24T14:20:56.493Z,76.60
2022-12-24T14:23:52.226Z,77.70
2022-12-24T14:26:23.613Z,77.80
2022-12-24T14:29:07.598Z,77.90
2022-12-24T14:31:35.672Z,63.40
2022-12-24T14:34:09.046Z,62.50
2022-12-24T14:36:37.558Z,41.60
2022-12-24T14:39:08.542Z,54.20
2022-12-24T14:41:46.486Z,63.90
2022-12-24T14:44:52.883Z,59.60
2022-12-24T14:47:58.931Z,64.40
2022-12-24T14:50:42.566Z,70.40
2022-12-24T14:53:57.432Z,86.50
2022-12-24T14:56:25.707Z,77.90
2022-12-24T14:58:53.574Z,74.50
2022-12-24T15:01:26.446Z,69.00
2022-12-24T15:04:09.869Z,71.90
2022-12-24T15:06:50.595Z,72.10
2022-12-24T15:09:27.455Z,69.80
2022-12-24T15:11:58.762Z,60.80
2022-12-24T15:14:29.366Z,59.90
2022-12-24T15:17:01.686Z,62.20
2022-12-24T15:19:44.475Z,62.80
2022-12-24T15:22:30.087Z,65.50
2022-12-24T15:24:58.019Z,63.50
2022-12-24T15:27:32.274Z,60.50
2022-12-24T15:30:12.240Z,67.50
2022-12-24T15:32:40.235Z,69.90
2022-12-24T15:35:43.322Z,69.40
2022-12-24T15:38:33.968Z,69.70
2022-12-24T15:41:14.729Z,70.00
2022-12-24T15:43:44.733Z,69.00
2022-12-24T15:46:26.911Z,69.10
2022-12-24T15:48:57.716Z,67.60
2022-12-24T15:51:30.490Z,69.80
2022-12-24T15:54:05.267Z,75.70
2022-12-24T15:56:47.321Z,75.00
2022-12-24T15:59:38.156Z,75.10
2022-12-24T16:02:25.012Z,71.50
2022-12-24T16:04:53.250Z,72.90
2022-12-24T16:07:25.778Z,71.10
2022-12-24T16:10:13.653Z,69.00
2022-12-24T16:12:41.667Z,70.40
2022-12-24T16:15:15.164Z,64.00
2022-12-24T16:17:49.252Z,72.00
2022-12-24T16:20:21.839Z,69.90
2022-12-24T16:22:51.436Z,69.70
2022-12-24T16:25:28.145Z,70.10
2022-12-24T16:28:00.077Z,77.00
2022-12-24T16:30:28.568Z,76.30
2022-12-24T16:32:56.445Z,69.40
2022-12-24T16:35:33.421Z,73.50
2022-12-24T16:38:01.317Z,68.90
2022-12-24T16:40:29.809Z,72.70
2022-12-24T16:43:16.502Z,84.80
2022-12-24T16:45:46.716Z,81.90
2022-12-24T16:48:23.751Z,74.20
2022-12-24T16:50:53.140Z,80.70
2022-12-24T16:53:22.292Z,84.10
2022-12-24T16:55:51.927Z,81.00
2022-12-24T16:58:20.780Z,84.20
2022-12-24T17:00:48.590Z,80.20
2022-12-24T17:03:16.622Z,77.40
2022-12-24T17:05:45.341Z,64.00
2022-12-24T17:08:13.867Z,61.40
2022-12-24T17:10:51.009Z,63.80
2022-12-24T17:13:19.004Z,64.20
2022-12-24T17:15:47.010Z,66.00
2022-12-24T17:18:15.168Z,65.50
2022-12-24T17:20:43.002Z,66.20
2022-12-24T17:23:10.996Z,70.70
2022-12-24T17:25:38.918Z,69.10
2022-12-24T17:28:06.836Z,72.00
2022-12-24T17:30:34.698Z,110.70
2022-12-24T17:33:02.662Z,142.30
2022-12-24T17:35:30.533Z,137.30
2022-12-24T17:37:59.199Z,137.50
2022-12-24T17:40:26.999Z,126.00
2022-12-24T17:42:54.954Z,76.30
2022-12-24T17:45:23.346Z,54.60
2022-12-24T17:47:51.220Z,51.80
2022-12-24T17:50:19.213Z,44.60
2022-12-24T17:52:47.087Z,48.10
2022-12-24T17:55:14.999Z,46.10
2022-12-24T17:57:42.834Z,62.70
2022-12-24T18:00:11.281Z,75.40
2022-12-24T18:02:39.406Z,86.30
2022-12-24T18:05:07.901Z,79.70
2022-12-24T18:07:35.771Z,104.00
2022-12-24T18:10:04.766Z,104.60
2022-12-24T18:12:32.625Z,81.30
2022-12-24T18:15:00.473Z,84.40
2022-12-24T18:17:28.340Z,82.60
2022-12-24T18:19:56.248Z,76.60
2022-12-24T18:22:24.161Z,77.10
2022-12-24T18:24:52.043Z,78.00
2022-12-24T18:27:19.899Z,76.80
2022-12-24T18:29:47.746Z,77.70
2022-12-24T18:32:16.957Z,75.30
2022-12-24T18:34:44.834Z,77.30
2022-12-24T18:37:12.671Z,74.00
2022-12-24T18:39:40.585Z,77.70
2022-12-24T18:42:14.287Z,64.00
2022-12-24T18:44:42.937Z,67.30
2022-12-24T18:47:11.040Z,67.60
2022-12-24T18:49:39.023Z,75.80
2022-12-24T18:52:09.448Z,72.30
2022-12-24T18:54:38.372Z,71.00
2022-12-24T18:57:07.043Z,59.10
2022-12-24T18:59:36.435Z,39.40
2022-12-24T19:02:04.359Z,58.00
2022-12-24T19:04:32.231Z,44.30
2022-12-24T19:07:00.560Z,27.30
2022-12-24T19:09:28.502Z,25.70
2022-12-24T19:11:56.363Z,18.70
2022-12-24T19:14:24.171Z,19.80
2022-12-24T19:16:52.037Z,16.20
2022-12-24T19:19:23.990Z,13.00
2022-12-24T19:21:51.952Z,14.80
2022-12-24T19:24:20.392Z,14.60
2022-12-24T19:26:48.978Z,17.00
2022-12-24T19:29:16.972Z,12.40
2022-12-24T19:31:47.488Z,11.50
2022-12-24T19:34:15.562Z,12.00
2022-12-24T19:36:43.411Z,11.90
2022-12-24T19:39:11.734Z,12.80
2022-12-24T19:41:39.600Z,9.20
2022-12-24T19:44:07.443Z,10.60
2022-12-24T19:46:36.991Z,13.10
2022-12-24T19:49:10.232Z,9.80
2022-12-24T19:51:38.290Z,10.40
2022-12-24T19:54:13.335Z,10.00
2022-12-24T19:56:44.705Z,10.80
2022-12-24T19:59:12.680Z,13.20
2022-12-24T20:01:40.703Z,10.90
2022-12-24T20:04:10.543Z,10.10
2022-12-24T20:06:39.576Z,11.90
2022-12-24T20:09:08.547Z,11.30
2022-12-24T20:11:36.813Z,11.40
2022-12-24T20:14:06.622Z,10.60
2022-12-24T20:16:35.681Z,11.10
2022-12-24T20:19:06.962Z,12.40
2022-12-24T20:21:35.497Z,12.20
2022-12-24T20:24:03.584Z,11.40
2022-12-24T20:26:31.514Z,11.30
2022-12-24T20:29:03.670Z,9.40
2022-12-24T20:31:31.547Z,10.60
2022-12-24T20:34:00.615Z,9.80
2022-12-24T20:36:30.536Z,10.90
2022-12-24T20:38:59.020Z,11.80
2022-12-24T20:41:28.792Z,10.30
2022-12-24T20:44:00.986Z,12.80
2022-12-24T20:46:29.141Z,10.20
2022-12-24T20:48:58.490Z,12.40
2022-12-24T20:51:27.696Z,9.50
2022-12-24T20:53:59.629Z,10.40
2022-12-24T20:56:28.821Z,9.40
2022-12-24T20:58:58.481Z,11.10
2022-12-24T21:01:26.733Z,9.10
2022-12-24T21:03:56.921Z,13.40
2022-12-24T21:06:25.232Z,11.40
2022-12-24T21:08:54.427Z,10.90
2022-12-24T21:11:41.652Z,11.60
2022-12-24T21:14:10.694Z,11.40
2022-12-24T21:16:40.419Z,13.90
2022-12-24T21:19:11.444Z,10.10
2022-12-24T21:21:39.324Z,9.70
2022-12-24T21:24:07.598Z,10.10
2022-12-24T21:26:36.373Z,10.20
2022-12-24T21:29:06.648Z,10.80
2022-12-24T21:31:36.086Z,11.20
2022-12-24T21:34:04.082Z,10.80
2022-12-24T21:36:32.072Z,14.10
2022-12-24T21:38:59.943Z,14.10
2022-12-24T21:41:28.146Z,10.30
2022-12-24T21:43:56.160Z,11.80
2022-12-24T21:46:25.832Z,10.40
2022-12-24T21:49:14.329Z,12.50
2022-12-24T21:51:44.889Z,11.80
2022-12-24T21:54:27.312Z,12.30
2022-12-24T21:57:19.751Z,10.30
2022-12-24T21:59:50.270Z,9.70
2022-12-24T22:02:20.571Z,10.10
2022-12-24T22:04:48.857Z,13.10
2022-12-24T22:07:41.589Z,11.30
2022-12-24T22:10:29.233Z,12.80
2022-12-24T22:13:00.102Z,12.30
2022-12-24T22:15:28.037Z,14.10
2022-12-24T22:17:56.098Z,10.00
2022-12-24T22:20:24.269Z,11.00
2022-12-24T22:22:52.250Z,13.70
2022-12-24T22:25:20.213Z,12.00
2022-12-24T22:27:48.060Z,11.30
2022-12-24T22:30:16.062Z,10.20
2022-12-24T22:32:44.022Z,10.80
2022-12-24T22:35:12.273Z,10.00
2022-12-24T22:37:40.218Z,10.20
2022-12-24T22:40:09.283Z,12.80
2022-12-24T22:42:37.546Z,18.90
2022-12-24T22:45:05.953Z,8.60
2022-12-24T22:47:34.272Z,10.30
2022-12-24T22:50:02.234Z,13.30
2022-12-24T22:52:33.004Z,11.40
2022-12-24T22:55:01.760Z,11.90
2022-12-24T22:57:29.632Z,12.20
2022-12-24T22:59:57.541Z,10.50
2022-12-24T23:02:28.610Z,10.00
2022-12-24T23:04:56.964Z,12.40
2022-12-24T23:07:24.917Z,10.10
2022-12-24T23:09:52.793Z,9.00
2022-12-24T23:12:40.645Z,10.90
2022-12-24T23:15:09.015Z,12.20
2022-12-24T23:17:36.797Z,9.70
2022-12-24T23:20:05.396Z,10.90
2022-12-24T23:22:33.224Z,11.80
2022-12-24T23:25:01.078Z,12.90
2022-12-24T23:27:29.041Z,10.10
2022-12-24T23:29:56.887Z,12.10
2022-12-24T23:32:24.861Z,11.90
2022-12-24T23:34:52.743Z,14.30
2022-12-24T23:37:20.629Z,11.70
2022-12-24T23:39:51.626Z,10.70
2022-12-24T23:42:19.477Z,11.10
2022-12-24T23:44:47.325Z,9.00
2022-12-24T23:47:15.186Z,10.30
2022-12-24T23:49:43.256Z,14.00
2022-12-24T23:52:11.097Z,10.90
2022-12-24T23:54:39.085Z,12.10
2022-12-24T23:57:06.892Z,11.30
2022-12-24T23:59:34.881Z,11.50
